Time;durP1;ratioP1;P1;durP2;ratioP2;P2;SDS_P1;SDS_P2;PMS_P1;PMS_P2;Temp;Humidity;BMP_temperature;BMP_pressure;BME280_temperature;BME280_humidity;BME280_pressure;Samples;Min_cycle;Max_cycle;Signal;HPM_P1;HPM_P2
2023/04/10 00:00:52;;;;;;;3.83;3.63;;;;;;;;;;5024823;28;20060;-95
2023/04/10 00:03:18;;;;;;;3.33;3.13;;;;;;;;;;5020566;28;20060;-96
2023/04/10 00:05:45;;;;;;;4.32;4.03;;;;;;;;;;5017358;28;20069;-95
2023/04/10 00:08:12;;;;;;;6.78;6.28;;;;;;;;;;5015465;28;20453;-95
2023/04/10 00:10:38;;;;;;;6.03;4.47;;;;;;;;;;5004866;28;20068;-96
2023/04/10 00:13:05;;;;;;;4.10;3.90;;;;;;;;;;4998970;28;20058;-95
2023/04/10 00:15:31;;;;;;;5.53;5.18;;;;;;;;;;4998828;28;20050;-95
2023/04/10 00:17:59;;;;;;;4.75;3.78;;;;;;;;;;4998963;28;20490;-95
2023/04/10 00:20:26;;;;;;;4.18;3.88;;;;;;;;;;4998774;28;20054;-95
2023/04/10 00:22:53;;;;;;;6.72;6.22;;;;;;;;;;4998693;28;20057;-95
2023/04/10 00:25:21;;;;;;;7.35;7.03;;;;;;;;;;4998764;28;20466;-95
2023/04/10 00:27:48;;;;;;;5.97;5.53;;;;;;;;;;5017685;28;20054;-95
2023/04/10 00:30:15;;;;;;;7.45;7.05;;;;;;;;;;5038268;28;20468;-94
2023/04/10 00:32:42;;;;;;;6.68;5.75;;;;;;;;;;5038081;28;20065;-95
2023/04/10 00:35:10;;;;;;;4.85;4.50;;;;;;;;;;5037992;28;20053;-95
2023/04/10 00:37:37;;;;;;;6.32;4.97;;;;;;;;;;5038371;28;20559;-95
2023/04/10 00:40:05;;;;;;;4.82;4.63;;;;;;;;;;5038362;28;20099;-95
2023/04/10 00:42:31;;;;;;;3.83;3.63;;;;;;;;;;5025162;28;20043;-95
2023/04/10 00:44:58;;;;;;;4.78;4.47;;;;;;;;;;4998578;28;20506;-95
2023/04/10 00:47:25;;;;;;;5.43;5.03;;;;;;;;;;4999131;28;20214;-95
2023/04/10 00:49:52;;;;;;;5.60;5.20;;;;;;;;;;4998719;28;20057;-96
2023/04/10 00:52:20;;;;;;;6.25;5.75;;;;;;;;;;5000776;28;20050;-96
2023/04/10 00:54:47;;;;;;;8.57;8.07;;;;;;;;;;5004875;28;20133;-96
2023/04/10 00:57:13;;;;;;;4.85;4.50;;;;;;;;;;5001744;28;20057;-96
2023/04/10 00:59:40;;;;;;;4.25;3.85;;;;;;;;;;5005746;28;20058;-95
2023/04/10 01:02:07;;;;;;;5.05;4.60;;;;;;;;;;5017923;28;20056;-95
2023/04/10 01:04:34;;;;;;;3.72;3.53;;;;;;;;;;5017468;28;20087;-95
2023/04/10 01:07:05;;;;;;;4.68;4.38;;;;;;;;;;5017405;28;20107;-95
2023/04/10 01:09:41;;;;;;;4.88;4.57;;;;;;;;;;5017577;28;20108;-95
2023/04/10 01:12:12;;;;;;;3.85;3.53;;;;;;;;;;5017268;28;20096;-95
2023/04/10 01:14:42;;;;;;;7.70;7.20;;;;;;;;;;5023090;28;20457;-94
2023/04/10 01:17:11;;;;;;;4.53;4.03;;;;;;;;;;5036909;28;20060;-95
2023/04/10 01:19:47;;;;;;;4.57;4.38;;;;;;;;;;5037676;28;20053;-95
2023/04/10 01:22:16;;;;;;;5.03;4.72;;;;;;;;;;5036324;28;20448;-96
2023/04/10 01:24:50;;;;;;;6.07;5.78;;;;;;;;;;5037197;28;20528;-94
2023/04/10 01:27:26;;;;;;;5.32;5.03;;;;;;;;;;5036737;28;20069;-94
2023/04/10 01:29:56;;;;;;;3.78;3.58;;;;;;;;;;5037241;28;20045;-94
2023/04/10 01:32:24;;;;;;;6.25;4.13;;;;;;;;;;5021273;28;20115;-95
2023/04/10 01:34:51;;;;;;;2.75;2.55;;;;;;;;;;4997953;28;20045;-94
2023/04/10 01:37:20;;;;;;;6.05;5.70;;;;;;;;;;4997581;28;20108;-93
2023/04/10 01:39:50;;;;;;;3.22;3.10;;;;;;;;;;4997264;28;20042;-93
2023/04/10 01:42:17;;;;;;;7.05;4.43;;;;;;;;;;4997528;28;20081;-95
2023/04/10 01:44:45;;;;;;;5.60;4.93;;;;;;;;;;4997103;28;20047;-94
2023/04/10 01:47:14;;;;;;;6.25;3.95;;;;;;;;;;4997048;28;20050;-94
2023/04/10 01:49:43;;;;;;;6.35;5.00;;;;;;;;;;4996903;28;20446;-95
2023/04/10 01:52:11;;;;;;;4.38;4.07;;;;;;;;;;4997126;28;20050;-95
2023/04/10 01:54:38;;;;;;;4.35;4.15;;;;;;;;;;4997281;28;20050;-94
2023/04/10 01:57:05;;;;;;;5.47;5.07;;;;;;;;;;5001165;28;20092;-94
2023/04/10 01:59:31;;;;;;;3.97;3.67;;;;;;;;;;5017759;28;20056;-94
2023/04/10 02:01:58;;;;;;;5.15;4.72;;;;;;;;;;5016478;28;20092;-93
2023/04/10 02:04:26;;;;;;;4.40;4.10;;;;;;;;;;5016010;28;20505;-93
2023/04/10 02:07:01;;;;;;;4.65;4.45;;;;;;;;;;4999792;28;20046;-93
2023/04/10 02:09:31;;;;;;;6.07;5.68;;;;;;;;;;4997004;28;20054;-93
2023/04/10 02:12:00;;;;;;;4.25;4.05;;;;;;;;;;4996701;28;20134;-93
2023/04/10 02:14:28;;;;;;;4.85;4.43;;;;;;;;;;4997250;28;20054;-94
2023/04/10 02:16:55;;;;;;;5.25;4.75;;;;;;;;;;4997207;28;20058;-94
2023/04/10 02:19:23;;;;;;;4.22;4.00;;;;;;;;;;4997116;28;20046;-94
2023/04/10 02:21:52;;;;;;;5.22;4.90;;;;;;;;;;5001500;28;20112;-94
2023/04/10 02:24:19;;;;;;;4.55;4.35;;;;;;;;;;5016793;28;20104;-94
2023/04/10 02:26:46;;;;;;;7.60;7.10;;;;;;;;;;5016561;28;20465;-95
2023/04/10 02:29:13;;;;;;;4.30;3.92;;;;;;;;;;5017214;28;20049;-94
2023/04/10 02:31:39;;;;;;;5.10;4.82;;;;;;;;;;5017165;28;20046;-94
2023/04/10 02:34:06;;;;;;;3.50;3.30;;;;;;;;;;5016724;28;20050;-94
2023/04/10 02:36:34;;;;;;;6.95;6.60;;;;;;;;;;5018261;28;20490;-95
2023/04/10 02:39:02;;;;;;;4.28;4.03;;;;;;;;;;5018303;28;20525;-95
2023/04/10 02:41:29;;;;;;;4.97;4.68;;;;;;;;;;5036741;28;20053;-95
2023/04/10 02:43:55;;;;;;;3.35;3.25;;;;;;;;;;5036452;28;20103;-94
2023/04/10 02:46:22;;;;;;;3.58;3.38;;;;;;;;;;5036151;28;20049;-94
2023/04/10 02:48:48;;;;;;;4.78;4.57;;;;;;;;;;5036647;28;20451;-95
2023/04/10 02:51:16;;;;;;;6.22;5.80;;;;;;;;;;5037021;28;20057;-95
2023/04/10 02:53:43;;;;;;;4.93;4.55;;;;;;;;;;5039321;28;20049;-95
2023/04/10 02:56:11;;;;;;;3.75;3.45;;;;;;;;;;5037697;28;20045;-96
2023/04/10 02:58:38;;;;;;;4.70;4.40;;;;;;;;;;5020612;28;20085;-96
2023/04/10 03:01:05;;;;;;;6.78;6.35;;;;;;;;;;5017167;28;20053;-95
2023/04/10 03:03:32;;;;;;;4.63;4.32;;;;;;;;;;5017130;28;20065;-95
2023/04/10 03:05:59;;;;;;;4.28;4.07;;;;;;;;;;5017314;28;20056;-95
2023/04/10 03:08:25;;;;;;;3.97;3.67;;;;;;;;;;5016792;28;20049;-95
2023/04/10 03:10:52;;;;;;;7.00;6.50;;;;;;;;;;5016572;28;20052;-96
2023/04/10 03:13:22;;;;;;;3.72;2.50;;;;;;;;;;5016623;28;20072;-95
2023/04/10 03:15:48;;;;;;;3.97;3.78;;;;;;;;;;5016957;28;20058;-96
2023/04/10 03:18:15;;;;;;;6.13;5.82;;;;;;;;;;5016861;28;20058;-94
2023/04/10 03:20:42;;;;;;;3.85;3.65;;;;;;;;;;5017300;28;20046;-95
2023/04/10 03:23:08;;;;;;;3.10;2.90;;;;;;;;;;5017255;28;20046;-95
2023/04/10 03:25:35;;;;;;;6.65;6.30;;;;;;;;;;5015914;28;20564;-95
2023/04/10 03:28:02;;;;;;;3.45;3.28;;;;;;;;;;5020874;28;20049;-96
2023/04/10 03:30:30;;;;;;;5.38;5.15;;;;;;;;;;5022449;28;20461;-96
2023/04/10 03:32:56;;;;;;;3.22;3.03;;;;;;;;;;5021681;28;20050;-95
2023/04/10 03:35:23;;;;;;;5.78;5.38;;;;;;;;;;5020238;28;20552;-96
2023/04/10 03:37:50;;;;;;;5.50;4.78;;;;;;;;;;5016541;28;20453;-94
2023/04/10 03:40:16;;;;;;;5.75;4.88;;;;;;;;;;5015262;28;20072;-94
2023/04/10 03:42:43;;;;;;;4.13;3.92;;;;;;;;;;5015039;28;20046;-94
2023/04/10 03:45:10;;;;;;;4.22;3.95;;;;;;;;;;5015370;28;20053;-95
2023/04/10 03:47:38;;;;;;;7.05;6.75;;;;;;;;;;5009593;28;20442;-95
2023/04/10 03:50:05;;;;;;;5.00;3.25;;;;;;;;;;5000845;28;20553;-94
2023/04/10 03:52:32;;;;;;;2.75;2.55;;;;;;;;;;4999548;28;20105;-95
2023/04/10 03:54:58;;;;;;;4.50;4.20;;;;;;;;;;4999762;28;20054;-95
2023/04/10 03:57:25;;;;;;;2.42;2.33;;;;;;;;;;5000370;28;20085;-95
2023/04/10 03:59:51;;;;;;;4.93;4.63;;;;;;;;;;5000854;28;20085;-95
2023/04/10 04:02:18;;;;;;;3.45;3.15;;;;;;;;;;4999601;28;20157;-95
2023/04/10 04:04:46;;;;;;;5.40;5.10;;;;;;;;;;5000026;28;20545;-95
2023/04/10 04:07:12;;;;;;;3.63;3.35;;;;;;;;;;4999712;28;20105;-95
2023/04/10 04:09:39;;;;;;;4.93;4.72;;;;;;;;;;5000854;28;20446;-95
2023/04/10 04:12:06;;;;;;;4.40;4.00;;;;;;;;;;5007272;28;20499;-95
2023/04/10 04:14:33;;;;;;;4.57;4.28;;;;;;;;;;5002249;28;20057;-96
2023/04/10 04:16:59;;;;;;;4.78;3.70;;;;;;;;;;4999783;28;20395;-95
2023/04/10 04:19:26;;;;;;;6.93;6.43;;;;;;;;;;5015521;28;20046;-95
2023/04/10 04:21:54;;;;;;;5.57;5.28;;;;;;;;;;5018719;28;20115;-94
2023/04/10 04:24:20;;;;;;;7.10;6.70;;;;;;;;;;5018422;28;20045;-95
2023/04/10 04:26:47;;;;;;;4.43;4.13;;;;;;;;;;5019279;28;20457;-95
2023/04/10 04:29:14;;;;;;;5.82;5.38;;;;;;;;;;5019135;28;20049;-94
2023/04/10 04:31:40;;;;;;;5.82;5.28;;;;;;;;;;5019762;28;20054;-94
2023/04/10 04:34:07;;;;;;;5.45;5.20;;;;;;;;;;5018954;28;20050;-96
2023/04/10 04:36:33;;;;;;;5.88;5.57;;;;;;;;;;5018310;28;20049;-95
2023/04/10 04:39:01;;;;;;;4.90;4.60;;;;;;;;;;5007156;28;20568;-94
2023/04/10 04:41:31;;;;;;;5.38;5.03;;;;;;;;;;5000367;28;20050;-95
2023/04/10 04:43:57;;;;;;;5.70;5.40;;;;;;;;;;5011487;28;20046;-95
2023/04/10 04:46:24;;;;;;;6.10;5.60;;;;;;;;;;5019536;28;20108;-95
2023/04/10 04:48:50;;;;;;;5.72;5.28;;;;;;;;;;5018379;28;20050;-94
2023/04/10 04:51:17;;;;;;;4.00;3.60;;;;;;;;;;5019037;28;20058;-93
2023/04/10 04:53:43;;;;;;;4.28;4.07;;;;;;;;;;5022873;28;20386;-94
2023/04/10 04:56:11;;;;;;;6.00;5.60;;;;;;;;;;5037649;28;20049;-96
2023/04/10 04:58:38;;;;;;;5.45;4.95;;;;;;;;;;5038237;28;20049;-95
2023/04/10 05:01:05;;;;;;;4.70;4.43;;;;;;;;;;5041408;28;20080;-95
2023/04/10 05:03:31;;;;;;;5.68;5.38;;;;;;;;;;5039446;28;20103;-92
2023/04/10 05:05:58;;;;;;;5.22;4.80;;;;;;;;;;5038181;28;20105;-95
2023/04/10 05:08:25;;;;;;;8.05;7.47;;;;;;;;;;5038187;28;20558;-95
2023/04/10 05:10:51;;;;;;;6.05;5.50;;;;;;;;;;5025792;28;20061;-94
2023/04/10 05:13:20;;;;;;;6.53;6.13;;;;;;;;;;5016215;28;20072;-95
2023/04/10 05:15:46;;;;;;;7.55;7.15;;;;;;;;;;5017866;28;20053;-95
2023/04/10 05:18:18;;;;;;;7.20;6.80;;;;;;;;;;5017641;28;20050;-95
2023/04/10 05:20:44;;;;;;;7.47;6.78;;;;;;;;;;5017809;28;20077;-95
2023/04/10 05:23:11;;;;;;;7.32;5.70;;;;;;;;;;5017160;28;20054;-95
2023/04/10 05:25:37;;;;;;;6.63;6.07;;;;;;;;;;5017140;28;20053;-95
2023/04/10 05:28:04;;;;;;;9.98;9.35;;;;;;;;;;5017145;28;20414;-95
2023/04/10 05:30:32;;;;;;;5.95;5.47;;;;;;;;;;5017437;28;20045;-94
2023/04/10 05:32:59;;;;;;;5.72;5.32;;;;;;;;;;5017212;28;20104;-95
2023/04/10 05:35:25;;;;;;;7.50;6.95;;;;;;;;;;5016713;28;20517;-96
2023/04/10 05:37:52;;;;;;;7.30;6.78;;;;;;;;;;5016915;28;20100;-95
2023/04/10 05:40:18;;;;;;;7.35;6.60;;;;;;;;;;5016932;28;20057;-95
2023/04/10 05:42:45;;;;;;;6.97;6.47;;;;;;;;;;5017422;28;20052;-95
2023/04/10 05:45:13;;;;;;;6.95;6.53;;;;;;;;;;5017733;28;20057;-94
2023/04/10 05:47:41;;;;;;;6.15;4.85;;;;;;;;;;5017675;28;20054;-95
2023/04/10 05:50:08;;;;;;;9.07;6.90;;;;;;;;;;5017651;28;20123;-95
2023/04/10 05:52:35;;;;;;;8.10;7.60;;;;;;;;;;5017329;28;20119;-95
2023/04/10 05:55:01;;;;;;;5.93;5.18;;;;;;;;;;5015840;28;20058;-95
2023/04/10 05:57:29;;;;;;;8.77;7.95;;;;;;;;;;5017445;28;20449;-95
2023/04/10 05:59:55;;;;;;;10.45;9.75;;;;;;;;;;5017746;28;20054;-95
2023/04/10 06:02:23;;;;;;;12.68;9.15;;;;;;;;;;5018013;28;20054;-95
2023/04/10 06:04:51;;;;;;;8.60;8.07;;;;;;;;;;5017603;28;20096;-95
2023/04/10 06:07:18;;;;;;;11.18;10.48;;;;;;;;;;5017625;28;20066;-96
2023/04/10 06:09:44;;;;;;;7.63;6.93;;;;;;;;;;5012193;28;20053;-95
2023/04/10 06:12:11;;;;;;;8.20;7.65;;;;;;;;;;4997112;28;20062;-96
2023/04/10 06:14:37;;;;;;;9.18;8.43;;;;;;;;;;5009359;28;20053;-95
2023/04/10 06:29:20;;;;;;;22.80;21.15;;;;;;;;;;5109272;27;20399;-87
2023/04/10 06:31:46;;;;;;;30.67;28.85;;;;;;;;;;5104253;28;20044;-87
2023/04/10 06:34:13;;;;;;;20.02;18.85;;;;;;;;;;5109675;28;20553;-87
2023/04/10 06:59:58;;;;;;;30.05;28.52;;;;;;;;;;5109832;27;20880;-87
2023/04/10 07:02:25;;;;;;;29.70;28.17;;;;;;;;;;5109920;28;20048;-87
2023/04/10 07:04:52;;;;;;;26.50;24.65;;;;;;;;;;5109916;28;20109;-87
2023/04/10 07:07:18;;;;;;;16.58;15.63;;;;;;;;;;5109636;28;20602;-87
2023/04/10 07:09:45;;;;;;;24.77;23.73;;;;;;;;;;5110194;28;20104;-86
2023/04/10 07:12:11;;;;;;;28.30;27.02;;;;;;;;;;5109635;28;20051;-87
2023/04/10 07:14:38;;;;;;;23.45;22.17;;;;;;;;;;5119532;28;20507;-87
2023/04/10 07:17:06;;;;;;;22.40;21.58;;;;;;;;;;5120379;28;20051;-87
2023/04/10 07:19:32;;;;;;;13.32;12.55;;;;;;;;;;5109280;28;20423;-86
2023/04/10 07:21:59;;;;;;;24.30;23.13;;;;;;;;;;5109655;28;20048;-87
2023/04/10 07:24:26;;;;;;;24.10;22.92;;;;;;;;;;5109607;28;20048;-87
2023/04/10 07:26:52;;;;;;;21.17;20.23;;;;;;;;;;5109944;28;20052;-86
2023/04/10 07:29:19;;;;;;;30.10;28.70;;;;;;;;;;5109303;28;20101;-87
2023/04/10 07:31:45;;;;;;;26.58;25.23;;;;;;;;;;5108375;28;20044;-86
2023/04/10 07:34:13;;;;;;;29.88;28.52;;;;;;;;;;5106317;28;20096;-87
2023/04/10 07:36:40;;;;;;;25.73;24.55;;;;;;;;;;5109440;28;20048;-86
2023/04/10 07:39:06;;;;;;;25.30;24.20;;;;;;;;;;5110546;28;20047;-87
2023/04/10 07:41:34;;;;;;;25.45;24.30;;;;;;;;;;5112156;28;20051;-86
2023/04/10 07:44:00;;;;;;;26.48;25.20;;;;;;;;;;5109046;28;20475;-86
2023/04/10 07:46:27;;;;;;;28.77;27.48;;;;;;;;;;5109169;28;20052;-84
2023/04/10 07:48:55;;;;;;;29.15;27.77;;;;;;;;;;5108428;28;20533;-84
2023/04/10 07:51:23;;;;;;;28.25;26.95;;;;;;;;;;5108870;28;20062;-85
2023/04/10 07:53:49;;;;;;;25.63;24.50;;;;;;;;;;5108809;28;20044;-85
2023/04/10 07:56:17;;;;;;;14.77;13.88;;;;;;;;;;5109072;28;20483;-85
2023/04/10 07:58:43;;;;;;;23.35;22.25;;;;;;;;;;5108004;28;20117;-84
2023/04/10 08:01:10;;;;;;;27.65;26.30;;;;;;;;;;5094955;28;20536;-85
2023/04/10 08:03:40;;;;;;;29.50;28.15;;;;;;;;;;5095371;28;20044;-86
2023/04/10 08:06:08;;;;;;;24.42;23.13;;;;;;;;;;5095108;28;20048;-86
2023/04/10 08:08:36;;;;;;;21.35;19.92;;;;;;;;;;5095292;28;20063;-87
2023/04/10 08:11:02;;;;;;;25.65;24.52;;;;;;;;;;5095079;28;20134;-86
2023/04/10 08:13:29;;;;;;;26.27;24.98;;;;;;;;;;5094751;28;20089;-87
2023/04/10 08:15:55;;;;;;;24.55;23.45;;;;;;;;;;5095372;28;20147;-86
2023/04/10 08:18:22;;;;;;;28.73;27.42;;;;;;;;;;5094860;28;20060;-86
2023/04/10 08:20:48;;;;;;;26.73;25.27;;;;;;;;;;5094394;28;20048;-85
2023/04/10 08:23:15;;;;;;;32.65;31.27;;;;;;;;;;5094883;28;20052;-85
2023/04/10 08:25:43;;;;;;;32.33;30.92;;;;;;;;;;5094776;28;20048;-84
2023/04/10 08:28:09;;;;;;;27.70;26.42;;;;;;;;;;5094458;28;20048;-85
2023/04/10 08:30:36;;;;;;;32.00;30.60;;;;;;;;;;5094806;28;20036;-85
2023/04/10 08:33:02;;;;;;;32.70;31.30;;;;;;;;;;5094561;28;20052;-84
2023/04/10 08:35:29;;;;;;;32.17;30.67;;;;;;;;;;5094758;28;20093;-85
2023/04/10 08:37:55;;;;;;;29.08;27.67;;;;;;;;;;5094222;28;20048;-84
2023/04/10 08:40:22;;;;;;;39.33;37.70;;;;;;;;;;5094235;28;20492;-84
2023/04/10 08:42:50;;;;;;;30.27;28.77;;;;;;;;;;5094484;28;20060;-84
2023/04/10 08:45:16;;;;;;;29.10;27.65;;;;;;;;;;5094841;28;20047;-84
2023/04/10 08:47:44;;;;;;;31.30;29.92;;;;;;;;;;5094000;28;20507;-85
2023/04/10 08:50:11;;;;;;;30.00;28.30;;;;;;;;;;5093571;28;20046;-85
2023/04/10 08:52:38;;;;;;;25.20;23.88;;;;;;;;;;5093742;28;20055;-85
2023/04/10 08:55:07;;;;;;;30.02;28.75;;;;;;;;;;5093649;28;20044;-85
2023/04/10 08:57:36;;;;;;;28.15;27.10;;;;;;;;;;5093644;28;20048;-84
2023/04/10 09:00:05;;;;;;;30.33;29.10;;;;;;;;;;5093646;28;20040;-85
2023/04/10 09:02:31;;;;;;;30.48;29.15;;;;;;;;;;5093528;28;20044;-86
2023/04/10 09:05:00;;;;;;;26.73;25.60;;;;;;;;;;5094184;28;20055;-84
2023/04/10 09:07:26;;;;;;;27.95;26.77;;;;;;;;;;5094082;28;20109;-86
2023/04/10 09:09:53;;;;;;;32.25;31.05;;;;;;;;;;5093839;28;20062;-84
2023/04/10 09:12:19;;;;;;;31.40;30.20;;;;;;;;;;5093103;28;20113;-85
2023/04/10 09:14:48;;;;;;;28.25;27.20;;;;;;;;;;5094203;28;20073;-84
2023/04/10 09:17:17;;;;;;;31.23;30.05;;;;;;;;;;5094183;28;20052;-84
2023/04/10 09:19:44;;;;;;;23.58;22.60;;;;;;;;;;5093736;28;20105;-84
2023/04/10 09:22:11;;;;;;;21.58;20.48;;;;;;;;;;5093667;28;20093;-84
2023/04/10 09:24:38;;;;;;;14.75;14.13;;;;;;;;;;5093861;28;20408;-86
2023/04/10 09:27:05;;;;;;;28.95;27.80;;;;;;;;;;5093238;28;20048;-87
2023/04/10 09:29:44;;;;;;;32.42;31.00;;;;;;;;;;5093729;28;20048;-87
2023/04/10 09:32:11;;;;;;;29.13;27.88;;;;;;;;;;5093776;28;20044;-87
2023/04/10 09:34:53;;;;;;;27.08;25.95;;;;;;;;;;5093794;28;20112;-86
2023/04/10 09:37:21;;;;;;;31.20;29.92;;;;;;;;;;5093350;28;20073;-87
2023/04/10 09:39:48;;;;;;;31.20;29.88;;;;;;;;;;5093332;28;20098;-86
2023/04/10 09:42:14;;;;;;;33.17;31.88;;;;;;;;;;5093222;28;20445;-84
2023/04/10 09:44:41;;;;;;;26.23;25.08;;;;;;;;;;5093362;28;20105;-86
2023/04/10 09:47:15;;;;;;;24.80;23.90;;;;;;;;;;5093399;28;20097;-87
2023/04/10 09:49:44;;;;;;;34.80;33.50;;;;;;;;;;5092977;28;20458;-87
2023/04/10 09:52:17;;;;;;;15.57;14.88;;;;;;;;;;5093036;28;20443;-87
2023/04/10 09:54:43;;;;;;;33.53;32.22;;;;;;;;;;5093003;28;20550;-86
2023/04/10 09:57:10;;;;;;;28.98;27.80;;;;;;;;;;5087544;28;20051;-86
2023/04/10 09:59:38;;;;;;;31.55;30.40;;;;;;;;;;5093127;28;20051;-88
2023/04/10 10:02:04;;;;;;;26.23;25.27;;;;;;;;;;5093211;28;20040;-87
2023/04/10 10:04:31;;;;;;;28.55;27.27;;;;;;;;;;5094798;28;20043;-86
2023/04/10 10:06:57;;;;;;;16.02;15.30;;;;;;;;;;5093940;28;20451;-86
2023/04/10 10:09:27;;;;;;;25.30;24.17;;;;;;;;;;5092865;28;20044;-86
2023/04/10 10:11:54;;;;;;;36.65;35.15;;;;;;;;;;5093149;28;20056;-84
2023/04/10 10:14:22;;;;;;;25.27;24.17;;;;;;;;;;5092837;28;20052;-86
2023/04/10 10:16:50;;;;;;;24.95;24.05;;;;;;;;;;5092920;28;20048;-86
2023/04/10 10:19:19;;;;;;;28.00;26.80;;;;;;;;;;5092231;28;20105;-86
2023/04/10 10:21:46;;;;;;;35.22;33.85;;;;;;;;;;5091448;28;20044;-86
2023/04/10 10:24:13;;;;;;;28.60;27.50;;;;;;;;;;5092406;28;20056;-86
2023/04/10 10:26:40;;;;;;;32.03;30.80;;;;;;;;;;5092921;28;20109;-86
2023/04/10 10:29:09;;;;;;;14.80;14.20;;;;;;;;;;5092432;28;20440;-86
2023/04/10 10:31:36;;;;;;;26.92;25.83;;;;;;;;;;5092833;28;20132;-87
2023/04/10 10:34:04;;;;;;;28.67;27.58;;;;;;;;;;5092366;28;20484;-87
2023/04/10 10:36:31;;;;;;;27.38;26.27;;;;;;;;;;5092623;28;20056;-86
2023/04/10 10:39:01;;;;;;;29.70;28.40;;;;;;;;;;5092753;28;20127;-86
2023/04/10 10:41:30;;;;;;;27.40;26.30;;;;;;;;;;5092648;28;20054;-86
2023/04/10 10:44:06;;;;;;;28.20;27.00;;;;;;;;;;5092476;28;20060;-85
2023/04/10 10:46:35;;;;;;;13.27;12.77;;;;;;;;;;5092352;28;20446;-87
2023/04/10 10:49:02;;;;;;;30.50;29.30;;;;;;;;;;5092106;28;20085;-85
2023/04/10 10:51:49;;;;;;;30.40;29.10;;;;;;;;;;5092220;28;20044;-84
2023/04/10 10:54:28;;;;;;;32.10;30.95;;;;;;;;;;5087088;28;20067;-85
2023/04/10 10:56:55;;;;;;;30.50;29.30;;;;;;;;;;5092300;28;20051;-84
2023/04/10 10:59:36;;;;;;;30.23;28.58;;;;;;;;;;5092255;28;20106;-84
2023/04/10 11:02:16;;;;;;;24.73;23.58;;;;;;;;;;5092421;28;20548;-84
2023/04/10 11:04:43;;;;;;;32.95;31.60;;;;;;;;;;5072140;28;20045;-84
2023/04/10 11:07:10;;;;;;;24.70;23.65;;;;;;;;;;5072317;28;20058;-86
2023/04/10 11:09:47;;;;;;;24.95;23.83;;;;;;;;;;5072067;28;20045;-86
2023/04/10 11:12:14;;;;;;;27.35;26.25;;;;;;;;;;5072131;28;20051;-84
2023/04/10 11:14:41;;;;;;;31.65;30.48;;;;;;;;;;5071762;28;20489;-84
2023/04/10 11:17:08;;;;;;;22.60;21.67;;;;;;;;;;5088688;28;20082;-85
2023/04/10 11:19:49;;;;;;;27.92;26.77;;;;;;;;;;5091468;28;20093;-84
2023/04/10 11:22:17;;;;;;;27.63;26.48;;;;;;;;;;5078209;28;20044;-86
2023/04/10 11:25:01;;;;;;;32.92;31.67;;;;;;;;;;5092441;28;20052;-85
2023/04/10 11:27:40;;;;;;;32.60;31.30;;;;;;;;;;5092117;28;20052;-84
2023/04/10 11:30:21;;;;;;;15.32;14.63;;;;;;;;;;5071800;28;20398;-84
2023/04/10 11:32:49;;;;;;;27.65;26.55;;;;;;;;;;5076064;28;20044;-84
2023/04/10 11:35:18;;;;;;;26.85;25.85;;;;;;;;;;5094002;28;20050;-85
2023/04/10 11:37:46;;;;;;;26.13;25.10;;;;;;;;;;5095938;28;20550;-85
2023/04/10 11:40:13;;;;;;;26.08;25.05;;;;;;;;;;5096219;28;20048;-84
2023/04/10 11:42:39;;;;;;;25.80;24.80;;;;;;;;;;5095975;28;20052;-84
2023/04/10 11:45:21;;;;;;;26.20;25.10;;;;;;;;;;5095642;28;20047;-85
2023/04/10 11:47:50;;;;;;;22.95;21.88;;;;;;;;;;5095482;28;20048;-85
2023/04/10 11:50:17;;;;;;;27.60;26.45;;;;;;;;;;5095957;28;20048;-84
2023/04/10 11:52:44;;;;;;;22.63;21.73;;;;;;;;;;5096029;28;20127;-84
2023/04/10 11:55:12;;;;;;;14.75;14.00;;;;;;;;;;5095936;28;20451;-84
2023/04/10 11:57:38;;;;;;;14.70;14.10;;;;;;;;;;5095402;28;20458;-84
2023/04/10 12:00:06;;;;;;;25.55;24.55;;;;;;;;;;5095931;28;20101;-84
2023/04/10 12:02:32;;;;;;;29.55;28.35;;;;;;;;;;5095737;28;20472;-84
2023/04/10 12:04:59;;;;;;;28.25;27.13;;;;;;;;;;5095609;28;20060;-84
2023/04/10 12:07:28;;;;;;;23.75;22.75;;;;;;;;;;5095304;28;20088;-84
2023/04/10 12:09:56;;;;;;;27.65;26.55;;;;;;;;;;5095367;28;20048;-84
2023/04/10 12:12:34;;;;;;;25.92;24.83;;;;;;;;;;5095376;28;20109;-83
2023/04/10 12:15:00;;;;;;;28.40;27.25;;;;;;;;;;5095195;28;20048;-84
2023/04/10 12:17:27;;;;;;;30.67;29.42;;;;;;;;;;5095331;28;20101;-83
2023/04/10 12:19:54;;;;;;;34.60;33.20;;;;;;;;;;5095512;28;20101;-84
2023/04/10 12:22:21;;;;;;;28.88;27.67;;;;;;;;;;5095204;28;20110;-86
2023/04/10 12:24:48;;;;;;;32.30;31.00;;;;;;;;;;5094735;28;20043;-84
2023/04/10 12:27:17;;;;;;;28.85;27.65;;;;;;;;;;5095125;28;20043;-84
2023/04/10 12:29:46;;;;;;;34.00;32.70;;;;;;;;;;5094782;28;20101;-84
2023/04/10 12:32:12;;;;;;;38.20;36.70;;;;;;;;;;5094943;28;20067;-84
2023/04/10 12:34:39;;;;;;;32.33;31.13;;;;;;;;;;5095171;28;20048;-85
2023/04/10 12:37:05;;;;;;;37.85;36.35;;;;;;;;;;5096439;28;20052;-84
2023/04/10 12:39:32;;;;;;;41.90;40.38;;;;;;;;;;5097361;28;20502;-84
2023/04/10 12:42:12;;;;;;;33.60;32.15;;;;;;;;;;5094673;28;20550;-84
2023/04/10 12:44:51;;;;;;;42.47;40.95;;;;;;;;;;5094716;28;20122;-84
2023/04/10 12:47:17;;;;;;;31.80;30.50;;;;;;;;;;5094538;28;20568;-84
2023/04/10 12:49:59;;;;;;;40.38;38.83;;;;;;;;;;5094626;28;20044;-84
2023/04/10 12:52:25;;;;;;;36.85;35.38;;;;;;;;;;5094311;28;20040;-84
2023/04/10 13:08:26;;;;;;;36.63;35.08;;;;;;;;;;5092505;27;20454;-96
2023/04/10 13:10:53;;;;;;;31.83;30.60;;;;;;;;;;5095789;28;20066;-95
2023/04/10 13:13:20;;;;;;;20.27;19.52;;;;;;;;;;5071303;28;20045;-96
2023/04/10 13:15:47;;;;;;;30.17;28.95;;;;;;;;;;5071575;28;20052;-96
2023/04/10 13:18:14;;;;;;;28.25;27.20;;;;;;;;;;5071564;28;20052;-96
2023/04/10 13:20:41;;;;;;;20.85;20.00;;;;;;;;;;5088336;28;20044;-94
2023/04/10 13:23:08;;;;;;;21.63;20.70;;;;;;;;;;5091207;28;20390;-96
2023/04/10 13:25:38;;;;;;;22.95;21.98;;;;;;;;;;5091590;28;20052;-96
2023/04/10 13:28:08;;;;;;;25.33;24.30;;;;;;;;;;5091079;28;20126;-95
2023/04/10 13:30:35;;;;;;;;;;;;;;;;;;5112621;28;20067;-95
2023/04/10 13:33:01;;;;;;;16.30;15.60;;;;;;;;;;5111560;28;20292;-95
2023/04/10 13:35:28;;;;;;;26.88;25.90;;;;;;;;;;5098019;28;20049;-94
2023/04/10 13:37:54;;;;;;;22.33;21.38;;;;;;;;;;5092086;28;20048;-95
2023/04/10 13:40:21;;;;;;;20.77;19.95;;;;;;;;;;5095351;28;20060;-95
2023/04/10 13:42:49;;;;;;;24.92;23.98;;;;;;;;;;5091212;28;20102;-94
2023/04/10 13:45:16;;;;;;;21.92;21.10;;;;;;;;;;5091841;28;20753;-95
2023/04/10 13:47:42;;;;;;;21.17;20.35;;;;;;;;;;5090828;28;20558;-94
2023/04/10 13:50:09;;;;;;;18.13;17.30;;;;;;;;;;5090110;28;20502;-93
2023/04/10 13:52:36;;;;;;;16.00;15.38;;;;;;;;;;5094043;28;20048;-94
2023/04/10 13:55:03;;;;;;;16.02;15.35;;;;;;;;;;5090398;28;20048;-95
2023/04/10 13:57:29;;;;;;;15.35;14.73;;;;;;;;;;5091468;28;20131;-94
2023/04/10 13:59:57;;;;;;;17.05;16.35;;;;;;;;;;5091300;28;20056;-93
2023/04/10 14:02:24;;;;;;;15.25;14.65;;;;;;;;;;5091717;28;20467;-95
2023/04/10 14:04:51;;;;;;;15.10;14.48;;;;;;;;;;5095478;28;20048;-96
2023/04/10 14:07:18;;;;;;;19.45;18.73;;;;;;;;;;5091094;28;20057;-95
2023/04/10 14:09:45;;;;;;;21.80;20.95;;;;;;;;;;5079302;28;20048;-94
2023/04/10 14:12:15;;;;;;;17.83;17.02;;;;;;;;;;5084300;28;20045;-96
2023/04/10 14:14:41;;;;;;;18.35;17.63;;;;;;;;;;5088773;28;20099;-95
2023/04/10 14:17:09;;;;;;;11.30;10.80;;;;;;;;;;5080971;28;20147;-95
2023/04/10 14:19:36;;;;;;;24.00;23.13;;;;;;;;;;5077752;28;20049;-96
2023/04/10 14:22:02;;;;;;;14.27;13.68;;;;;;;;;;5081842;28;20048;-96
2023/04/10 14:24:29;;;;;;;14.90;14.30;;;;;;;;;;5100203;28;20454;-95
2023/04/10 14:26:57;;;;;;;21.25;20.45;;;;;;;;;;5100538;28;20048;-95
2023/04/10 14:29:24;;;;;;;14.70;13.98;;;;;;;;;;5085841;28;20098;-95
2023/04/10 14:31:51;;;;;;;16.85;16.20;;;;;;;;;;5082333;28;20045;-94
2023/04/10 14:34:19;;;;;;;23.73;22.77;;;;;;;;;;5080853;28;20048;-95
2023/04/10 14:36:45;;;;;;;25.25;24.33;;;;;;;;;;5078652;28;20072;-95
2023/04/10 14:39:12;;;;;;;20.15;19.35;;;;;;;;;;5078612;28;20052;-95
2023/04/10 14:41:39;;;;;;;27.48;26.38;;;;;;;;;;5077841;28;20098;-95
2023/04/10 14:44:05;;;;;;;14.32;13.77;;;;;;;;;;5079201;28;20055;-94
2023/04/10 14:46:32;;;;;;;29.63;28.58;;;;;;;;;;5078420;28;20053;-94
2023/04/10 14:48:58;;;;;;;19.45;18.35;;;;;;;;;;5093079;28;20048;-94
2023/04/10 14:51:26;;;;;;;19.33;18.42;;;;;;;;;;5102011;28;20492;-94
2023/04/10 14:53:53;;;;;;;25.33;24.33;;;;;;;;;;5101284;28;20059;-95
2023/04/10 14:56:19;;;;;;;19.05;18.23;;;;;;;;;;5099649;28;20051;-94
2023/04/10 14:58:46;;;;;;;23.63;22.63;;;;;;;;;;5100999;28;20051;-94
2023/04/10 15:01:13;;;;;;;19.38;18.55;;;;;;;;;;5085774;28;20122;-94
2023/04/10 15:03:40;;;;;;;18.25;17.48;;;;;;;;;;5080915;28;20051;-95
2023/04/10 15:06:07;;;;;;;20.30;19.58;;;;;;;;;;5080867;28;20477;-95
2023/04/10 15:08:35;;;;;;;15.50;14.80;;;;;;;;;;5079438;28;20063;-94
2023/04/10 15:11:04;;;;;;;20.92;20.08;;;;;;;;;;5082200;28;20113;-94
2023/04/10 15:13:30;;;;;;;17.02;16.30;;;;;;;;;;5081521;28;20051;-95
2023/04/10 15:15:58;;;;;;;16.92;16.20;;;;;;;;;;5084520;28;20052;-94
2023/04/10 15:18:25;;;;;;;21.40;20.52;;;;;;;;;;5092184;28;20074;-94
2023/04/10 15:20:54;;;;;;;22.50;21.60;;;;;;;;;;5079036;28;20052;-93